Latest Weather Observations for Low Head

IDT60801

Issued at 5:31 pm EST Saturday 28 May 2016 (issued every 30 minutes, with the page automatically refreshed every 10 minutes)

About weather observations | Map of weather stations | Latest weather observations for TAS | Other Formats
Station Details ID: 091293 Name: LOW HEAD Lat: -41.05 Lon: 146.79 Height: 3.0 m
Data from the previous 72 hours. | See also: Recent months at Low Head
Date/Time
EST
Temp
°C
App
Temp
°C
Dew
Point
Rel
Hum
%
Delta-T
°C
Wind Press
QNH
hPa
Press
MSL
hPa
Rain
since 9 am
mm
Dir
 
Spd
km/h
Gust
km/h
Spd
kts
Gust
kts
28/05:30pm 11.6 10.6 5.5 66 2.8 CALM 0 0 0 0 1007.9 1007.9 0.0
28/05:00pm 12.0 11.0 5.6 65 3.0 CALM 0 0 0 0 1007.7 1007.7 0.0
28/04:30pm 12.3 9.6 5.7 64 3.1 WSW 9 11 5 6 1007.6 1007.6 0.0
28/04:00pm 12.9 8.9 6.7 66 3.0 W 17 19 9 10 1007.5 1007.5 0.0
28/03:30pm 12.9 8.6 6.9 67 2.9 W 19 20 10 11 1007.4 1007.4 0.0
28/03:00pm 12.7 7.8 7.0 68 2.8 W 22 24 12 13 1007.1 1007.1 0.0
28/02:30pm 12.5 7.6 7.0 69 2.6 W 22 26 12 14 1006.9 1006.9 0.0
28/02:00pm 12.5 7.2 7.0 69 2.7 W 24 28 13 15 1006.8 1006.8 0.0
28/01:30pm 12.4 7.1 6.7 68 2.7 W 24 28 13 15 1006.8 1006.8 0.0
28/01:00pm 12.7 12.0 7.0 68 2.8 CALM 0 0 0 0 1007.0 1007.0 0.0
28/12:30pm 12.1 10.0 6.6 69 2.6 WNW 7 11 4 6 1007.2 1007.2 0.0
28/12:00pm 11.1 7.6 5.6 69 2.5 S 13 15 7 8 1007.3 1007.3 0.0
28/11:30am 10.6 6.5 6.0 73 2.1 S 17 19 9 10 1007.7 1007.7 0.0
28/11:00am 9.6 5.8 5.6 76 1.8 S 15 17 8 9 1008.1 1008.1 0.0
28/10:30am 8.8 4.9 5.2 78 1.6 S 15 19 8 10 1008.2 1008.2 0.0
28/10:00am 8.6 5.1 5.5 81 1.4 S 13 17 7 9 1008.2 1008.2 0.0
28/09:30am 7.8 3.1 5.3 84 1.1 S 19 20 10 11 1008.1 1008.1 0.0
28/09:00am 7.3 2.4 5.0 85 1.0 S 20 26 11 14 1008.0 1008.0 0.0
28/08:30am 7.3 2.4 5.1 86 1.0 S 20 26 11 14 1008.0 1008.0 0.0
28/08:00am 6.8 1.4 4.6 86 1.0 SSE 22 26 12 14 1007.8 1007.8 0.0
28/07:30am 6.8 1.4 4.6 86 1.0 SSE 22 28 12 15 1007.8 1007.8 0.0
28/07:00am 7.1 1.8 5.1 87 0.9 SSE 22 30 12 16 1007.6 1007.6 0.0
28/06:30am 7.0 2.1 5.0 87 0.9 SSE 20 26 11 14 1007.4 1007.4 0.0
28/06:00am 7.5 2.3 5.5 87 0.9 SSE 22 28 12 15 1007.1 1007.1 0.0
28/05:30am 8.1 2.7 6.2 88 0.9 S 24 30 13 16 1007.0 1007.0 0.0
28/05:00am 8.4 3.0 6.4 87 0.9 S 24 28 13 15 1006.9 1006.9 0.0
28/04:30am 9.0 4.0 6.6 85 1.1 S 22 28 12 15 1006.9 1006.9 0.0
28/04:00am 9.3 4.0 6.7 84 1.2 S 24 26 13 14 1006.8 1006.8 0.0
28/03:30am 9.0 4.0 6.4 84 1.2 SSW 22 26 12 14 1006.9 1006.9 0.0
28/03:00am 9.2 3.9 6.6 84 1.2 S 24 26 13 14 1006.8 1006.8 0.0
28/02:30am 9.3 4.0 6.7 84 1.2 SSW 24 28 13 15 1007.0 1007.0 0.0
28/02:00am 9.3 3.6 6.7 84 1.2 SSW 26 30 14 16 1006.9 1006.9 0.0
28/01:30am 9.2 3.1 6.6 84 1.2 S 28 33 15 18 1006.7 1006.7 0.0
28/01:00am 9.3 4.0 6.7 84 1.2 S 24 28 13 15 1006.7 1006.7 0.0
28/12:30am 9.4 4.1 6.7 83 1.3 SSW 24 26 13 14 1006.9 1006.9 0.0
28/12:00am 9.7 4.4 6.8 82 1.4 S 24 28 13 15 1006.8 1006.8 0.0
 
Date/Time
EST
Temp
°C
App
Temp
°C
Dew
Point
Rel
Hum
%
Delta-T
°C
Wind Press
QNH
hPa
Press
MSL
hPa
Rain
since 9 am
mm
Dir
 
Spd
km/h
Gust
km/h
Spd
kts
Gust
kts
27/11:30pm 9.9 4.2 6.6 80 1.5 S 26 32 14 17 1007.0 1007.0 0.0
27/11:00pm 10.0 4.3 6.5 79 1.6 S 26 32 14 17 1006.9 1006.9 0.0
27/10:30pm 10.1 4.3 6.4 78 1.7 S 26 30 14 16 1006.9 1006.9 0.0
27/10:00pm 10.2 4.8 6.5 78 1.7 S 24 28 13 15 1006.9 1006.9 0.0
27/09:30pm 10.3 4.9 6.5 77 1.8 S 24 26 13 14 1006.8 1006.8 0.0
27/09:00pm 10.5 4.8 6.6 77 1.8 S 26 30 14 16 1006.6 1006.6 0.0
27/08:30pm 10.8 5.1 6.7 76 1.9 S 26 30 14 16 1006.5 1006.5 0.0
27/08:00pm 10.7 5.4 6.6 76 1.9 S 24 30 13 16 1006.4 1006.4 0.0
27/07:30pm 11.1 5.1 7.0 76 2.0 S 28 32 15 17 1006.2 1006.2 0.0
27/07:00pm 11.1 5.0 6.8 75 2.0 S 28 33 15 18 1006.1 1006.1 0.0
27/06:30pm 11.0 5.3 6.7 75 2.0 S 26 35 14 19 1005.8 1005.8 0.0
27/06:00pm 11.2 5.6 7.1 76 2.0 S 26 37 14 20 1005.7 1005.7 0.0
27/05:30pm 11.3 6.9 7.2 76 2.0 S 20 24 11 13 1005.4 1005.4 0.0
27/05:00pm 11.1 7.6 7.0 76 2.0 SSE 15 20 8 11 1005.2 1005.2 0.0
27/04:30pm 11.4 7.5 7.1 75 2.1 SSE 17 20 9 11 1004.8 1004.8 0.0
27/04:00pm 11.4 7.8 6.9 74 2.2 SSE 15 20 8 11 1004.6 1004.6 0.0
27/03:30pm 11.7 8.5 7.0 73 2.2 SSE 13 17 7 9 1004.3 1004.3 0.0
27/03:00pm 11.8 8.2 6.9 72 2.3 SSE 15 20 8 11 1003.9 1003.9 0.0
27/02:30pm 12.3 7.9 7.2 71 2.5 S 20 26 11 14 1003.7 1003.7 0.0
27/02:00pm 12.2 8.3 7.1 71 2.5 SSW 17 20 9 11 1003.6 1003.6 0.0
27/01:30pm 11.9 7.6 7.0 72 2.3 SSW 19 20 10 11 1003.6 1003.6 0.0
27/01:00pm 11.9 7.4 7.0 72 2.4 SSW 20 26 11 14 1003.6 1003.6 0.0
27/12:30pm 11.8 7.5 6.9 72 2.3 SSW 19 24 10 13 1003.7 1003.7 0.0
27/12:00pm 11.6 8.0 6.7 72 2.3 SW 15 19 8 10 1003.9 1003.9 0.0
27/11:30am 11.3 6.9 6.4 72 2.3 SSW 19 22 10 12 1004.1 1004.1 0.0
27/11:00am 11.0 6.5 6.2 72 2.3 SSW 19 22 10 12 1004.2 1004.2 0.0
27/10:30am 10.8 6.7 6.0 72 2.2 SSW 17 20 9 11 1004.3 1004.3 0.0
27/10:00am 10.5 5.9 5.5 71 2.3 SSW 19 24 10 13 1004.0 1004.0 0.0
27/09:30am 10.3 5.6 5.9 74 2.0 SW 20 24 11 13 1003.8 1003.8 0.0
27/09:00am 9.8 5.1 6.0 77 1.8 SW 20 24 11 13 1003.5 1003.5 0.0
27/08:30am 9.7 5.5 5.9 77 1.7 SSW 17 19 9 10 1003.5 1003.5 0.0
27/08:00am 9.7 6.0 6.1 78 1.7 SSW 15 19 8 10 1003.2 1003.2 0.0
27/07:30am 9.6 5.5 6.0 78 1.7 SW 17 20 9 11 1003.0 1003.0 0.0
27/07:00am 9.1 4.9 5.5 78 1.6 SW 17 19 9 10 1002.7 1002.7 0.0
27/06:30am 9.4 5.2 5.9 79 1.6 SW 17 20 9 11 1002.5 1002.5 0.0
27/06:00am 9.5 5.3 5.9 78 1.7 SSW 17 20 9 11 1002.4 1002.4 0.0
27/05:30am 9.7 5.2 6.2 79 1.6 SSW 19 22 10 12 1002.3 1002.3 0.0
27/05:00am 9.5 5.7 6.0 79 1.6 S 15 19 8 10 1002.3 1002.3 0.0
27/04:30am 9.6 5.5 6.0 78 1.7 SSW 17 20 9 11 1002.3 1002.3 0.0
27/04:00am 9.6 5.5 6.0 78 1.7 SSW 17 20 9 11 1002.1 1002.1 0.0
27/03:30am 10.0 5.0 6.5 79 1.6 SSW 22 28 12 15 1002.0 1002.0 0.0
27/03:00am 10.0 4.6 6.5 79 1.6 SSW 24 28 13 15 1002.0 1002.0 0.0
27/02:30am 9.7 4.2 6.1 78 1.7 SSW 24 28 13 15 1002.1 1002.1 0.0
27/02:00am 9.8 4.4 6.2 78 1.7 SSW 24 28 13 15 1001.9 1001.9 0.0
27/01:30am 9.7 4.6 6.1 78 1.7 SSW 22 26 12 14 1001.9 1001.9 0.0
27/01:00am 9.8 5.2 5.8 76 1.8 SSW 19 24 10 13 1002.0 1002.0 0.0
27/12:30am 9.8 5.0 5.6 75 1.9 SSW 20 22 11 12 1001.9 1001.9 0.0
27/12:00am 9.8 5.0 5.8 76 1.8 SSW 20 26 11 14 1002.0 1002.0 0.0
 
Date/Time
EST
Temp
°C
App
Temp
°C
Dew
Point
Rel
Hum
%
Delta-T
°C
Wind Press
QNH
hPa
Press
MSL
hPa
Rain
since 9 am
mm
Dir
 
Spd
km/h
Gust
km/h
Spd
kts
Gust
kts
26/11:30pm 9.4 4.8 5.6 77 1.7 SW 19 24 10 13 1002.1 1002.1 0.0
26/11:00pm 9.6 4.9 6.0 78 1.7 SSW 20 24 11 13 1001.8 1001.8 0.0
26/10:30pm 10.1 4.3 6.4 78 1.7 SSW 26 32 14 17 1001.8 1001.8 0.0
26/10:00pm 9.9 4.2 6.6 80 1.6 S 26 30 14 16 1001.8 1001.8 0.0
26/09:30pm 10.4 4.8 7.1 80 1.6 S 26 32 14 17 1001.8 1001.8 0.0
26/09:00pm 10.2 5.7 6.9 80 1.6 SSW 20 26 11 14 1001.8 1001.8 0.0
26/08:30pm 10.7 6.3 7.2 79 1.7 S 20 26 11 14 1001.5 1001.5 0.0
26/08:00pm 11.0 5.5 7.5 79 1.7 S 26 32 14 17 1001.4 1001.4 0.0
26/07:30pm 10.8 4.9 7.3 79 1.7 SSW 28 35 15 19 1001.3 1001.3 0.0
26/07:00pm 11.1 5.6 7.6 79 1.7 S 26 32 14 17 1001.0 1001.0 0.0
26/06:30pm 11.1 5.2 7.4 78 1.8 SSE 28 35 15 19 1000.9 1000.9 0.0
26/06:00pm 11.4 3.8 7.7 78 1.8 S 37 44 20 24 1000.6 1000.6 0.0
26/05:30pm 11.4 4.2 7.7 78 1.8 SSE 35 44 19 24 1000.2 1000.2 0.0
26/05:00pm 11.2 4.0 7.5 78 1.8 SSE 35 48 19 26 999.8 999.8 0.0
26/04:30pm 11.4 3.8 7.7 78 1.8 SSE 37 46 20 25 999.7 999.7 0.0
26/04:00pm 11.3 4.4 7.4 77 1.9 SSE 33 43 18 23 999.4 999.4 0.0
26/03:30pm 11.5 5.2 7.6 77 1.9 SSE 30 39 16 21 999.1 999.1 0.0
26/03:00pm 11.7 5.9 8.0 78 1.8 SSE 28 35 15 19 999.1 999.1 0.0
26/02:30pm 11.8 6.5 8.5 80 1.6 SSE 26 39 14 21 999.0 999.0 0.0
26/02:00pm 11.8 7.0 8.8 82 1.5 SSE 24 35 13 19 999.1 999.1 0.0
26/01:30pm 11.8 7.0 9.0 83 1.4 SSE 24 35 13 19 999.1 999.1 0.0
26/01:00pm 11.7 6.6 9.1 84 1.3 SSE 26 33 14 18 999.1 999.1 0.0
26/12:30pm 11.9 5.7 9.3 84 1.3 SSE 32 41 17 22 999.3 999.3 0.0
26/12:00pm 12.1 6.8 9.8 86 1.2 SSE 28 39 15 21 999.6 999.6 0.0
26/11:30am 12.2 7.0 10.3 88 1.0 SSE 28 35 15 19 999.8 999.8 0.0
26/11:00am 12.3 7.3 10.9 91 0.7 S 28 32 15 17 1000.1 1000.1 0.0
26/10:30am 11.9 6.9 10.8 93 0.6 S 28 35 15 19 1000.5 1000.5 0.0
26/10:00am 11.7 7.4 10.8 94 0.5 SSE 24 35 13 19 1000.8 1000.8 0.0
26/09:30am 12.7 9.1 11.8 94 0.5 S 22 28 12 15 1000.7 1000.7 0.0
26/09:00am 13.0 10.0 11.9 93 0.6 SSE 19 22 10 12 1000.5 1000.5 3.2
26/08:30am 13.2 11.4 12.1 93 0.6 S 13 15 7 8 1000.7 1000.7 3.2
26/08:00am 13.3 11.8 12.0 92 0.7 SSE 11 15 6 8 1000.6 1000.6 3.2
26/07:30am 13.9 12.2 12.6 92 0.7 NW 13 15 7 8 1000.7 1000.7 3.0
26/07:00am 13.9 11.1 12.6 92 0.7 NW 19 20 10 11 1000.6 1000.6 3.0
26/06:30am 13.9 10.5 12.6 92 0.7 NW 22 28 12 15 1000.7 1000.7 3.0
26/06:00am 14.0 10.7 12.7 92 0.7 NW 22 26 12 14 1000.8 1000.8 3.0
26/05:30am 14.0 9.6 12.9 93 0.6 NW 28 32 15 17 1000.8 1000.8 3.0
26/05:00am 13.9 9.8 12.8 93 0.6 NNW 26 32 14 17 1001.1 1001.1 3.0
26/04:30am 13.7 8.4 12.6 93 0.6 NNW 32 39 17 21 1001.4 1001.4 3.0
26/04:00am 13.7 8.3 12.8 94 0.5 NW 33 39 18 21 1001.6 1001.6 2.8
26/03:30am 13.5 7.7 12.6 94 0.5 NW 35 41 19 22 1001.9 1001.9 2.6
26/03:00am 13.5 7.7 12.6 94 0.5 NW 35 41 19 22 1002.2 1002.2 2.4
26/02:30am 13.3 7.4 12.4 94 0.5 NW 35 44 19 24 1002.7 1002.7 1.8
26/02:00am 13.3 7.3 12.2 93 0.6 NNW 35 43 19 23 1002.9 1002.9 1.4
26/01:30am 13.3 7.7 12.0 92 0.7 NW 33 39 18 21 1003.3 1003.3 1.0
26/01:00am 13.5 7.9 12.1 91 0.8 NW 33 44 18 24 1003.6 1003.6 0.4
26/12:30am 13.6 8.5 11.8 89 1.0 NW 30 35 16 19 1004.0 1004.0 0.0
26/12:00am 13.6 7.7 11.3 86 1.2 NW 33 41 18 22 1004.5 1004.5 0.0
 
Date/Time
EST
Temp
°C
App
Temp
°C
Dew
Point
Rel
Hum
%
Delta-T
°C
Wind Press
QNH
hPa
Press
MSL
hPa
Rain
since 9 am
mm
Dir
 
Spd
km/h
Gust
km/h
Spd
kts
Gust
kts
25/11:30pm 14.4 8.9 11.9 85 1.3 NNW 32 37 17 20 1004.9 1004.9 0.0
25/11:00pm 14.2 8.4 11.4 83 1.5 NNW 33 39 18 21 1005.4 1005.4 0.0
25/10:30pm 14.2 8.6 11.4 83 1.5 NNW 32 37 17 20 1005.7 1005.7 0.0
25/10:00pm 14.2 8.3 11.0 81 1.7 NNW 33 39 18 21 1006.2 1006.2 0.0
25/09:30pm 13.9 7.4 10.5 80 1.8 NNW 35 43 19 23 1006.5 1006.5 0.0
25/09:00pm 14.2 8.1 10.6 79 1.9 NW 33 37 18 20 1006.5 1006.5 0.0
25/08:30pm 14.2 7.0 10.6 79 1.9 NW 39 44 21 24 1006.5 1006.5 0.0
25/08:00pm 14.3 6.3 10.5 78 2.0 NW 43 50 23 27 1006.4 1006.4 0.0
25/07:30pm 15.1 9.3 11.5 79 1.9 NNW 33 39 18 21 1006.3 1006.3 0.0
25/07:00pm 15.0 10.2 11.8 81 1.7 NNW 28 33 15 18 1006.4 1006.4 0.0
25/06:30pm 14.9 10.1 11.7 81 1.7 NNW 28 32 15 17 1006.7 1006.7 0.0
25/06:00pm 14.8 9.7 11.8 82 1.6 NNW 30 35 16 19 1006.8 1006.8 0.0

Other Formats:

Comma delimited format used in spreadsheet applications
http://www.bom.gov.au/fwo/IDT60801/IDT60801.95964.axf

JavaScript Object Notation format (JSON) in row-major order
http://www.bom.gov.au/fwo/IDT60801/IDT60801.95964.json